createdAt,value
2023-07-08T00:01:38.530Z,22.10
2023-07-08T00:04:08.671Z,21.80
2023-07-08T00:06:37.780Z,24.23
2023-07-08T00:09:09.543Z,22.97
2023-07-08T00:11:37.747Z,25.20
2023-07-08T00:14:05.935Z,24.97
2023-07-08T00:16:34.081Z,24.80
2023-07-08T00:19:02.089Z,26.63
2023-07-08T00:21:31.398Z,24.23
2023-07-08T00:23:59.364Z,25.87
2023-07-08T00:26:28.864Z,25.73
2023-07-08T00:28:57.111Z,27.27
2023-07-08T00:31:27.337Z,25.13
2023-07-08T00:33:57.499Z,26.80
2023-07-08T00:36:26.940Z,26.33
2023-07-08T00:38:56.348Z,25.60
2023-07-08T00:41:26.520Z,25.37
2023-07-08T00:43:56.719Z,26.60
2023-07-08T00:46:31.554Z,26.43
2023-07-08T00:49:02.565Z,24.67
2023-07-08T00:51:30.467Z,25.37
2023-07-08T00:53:59.747Z,27.13
2023-07-08T00:56:29.053Z,26.50
2023-07-08T00:58:59.001Z,25.57
2023-07-08T01:01:28.064Z,25.90
2023-07-08T01:03:57.427Z,26.80
2023-07-08T01:06:32.416Z,27.07
2023-07-08T01:09:03.783Z,25.30
2023-07-08T01:11:32.314Z,23.93
2023-07-08T01:14:02.060Z,26.27
2023-07-08T01:16:30.198Z,25.63
2023-07-08T01:18:58.255Z,24.57
2023-07-08T01:21:31.146Z,25.50
2023-07-08T01:24:01.506Z,24.53
2023-07-08T01:26:31.418Z,24.17
2023-07-08T01:29:00.071Z,22.53
2023-07-08T01:31:28.216Z,24.47
2023-07-08T01:33:56.133Z,24.63
2023-07-08T01:36:26.591Z,24.30
2023-07-08T01:38:54.587Z,23.93
2023-07-08T01:41:23.881Z,23.70
2023-07-08T01:43:51.851Z,23.80
2023-07-08T01:46:21.944Z,23.43
2023-07-08T01:48:51.895Z,21.57
2023-07-08T01:51:20.132Z,20.73
2023-07-08T01:53:48.117Z,22.67
2023-07-08T01:56:17.004Z,21.40
2023-07-08T01:58:46.352Z,20.13
2023-07-08T02:01:14.836Z,21.27
2023-07-08T02:03:45.203Z,21.33
2023-07-08T02:06:13.449Z,21.40
2023-07-08T02:08:41.361Z,21.70
2023-07-08T02:11:09.404Z,22.70
2023-07-08T02:13:38.004Z,22.20
2023-07-08T02:16:08.374Z,21.00
2023-07-08T02:18:36.387Z,22.60
2023-07-08T02:21:04.526Z,23.50
2023-07-08T02:23:32.499Z,22.40
2023-07-08T02:26:01.233Z,22.50
2023-07-08T02:28:29.087Z,20.60
2023-07-08T02:30:57.049Z,22.60
2023-07-08T02:33:28.972Z,22.17
2023-07-08T02:35:56.904Z,21.00
2023-07-08T02:38:25.201Z,21.87
2023-07-08T02:40:53.371Z,21.63
2023-07-08T02:43:21.452Z,20.27
2023-07-08T02:45:51.234Z,21.37
2023-07-08T02:48:19.514Z,20.80
2023-07-08T02:50:48.887Z,19.73
2023-07-08T02:53:16.899Z,19.77
2023-07-08T02:55:45.027Z,20.50
2023-07-08T02:58:13.510Z,21.87
2023-07-08T03:00:41.516Z,20.97
2023-07-08T03:03:09.628Z,21.17
2023-07-08T03:05:37.641Z,20.70
2023-07-08T03:08:07.396Z,22.40
2023-07-08T03:10:35.381Z,23.00
2023-07-08T03:13:03.480Z,21.20
2023-07-08T03:15:33.009Z,23.40
2023-07-08T03:18:02.099Z,23.00
2023-07-08T03:20:33.589Z,24.13
2023-07-08T03:23:01.634Z,22.43
2023-07-08T03:25:31.110Z,21.30
2023-07-08T03:28:00.391Z,22.00
2023-07-08T03:30:28.928Z,22.10
2023-07-08T03:32:57.555Z,20.87
2023-07-08T03:35:26.072Z,22.33
2023-07-08T03:37:54.120Z,21.67
2023-07-08T03:40:22.320Z,21.73
2023-07-08T03:42:51.852Z,19.90
2023-07-08T03:45:19.994Z,18.90
2023-07-08T03:47:47.948Z,20.17
2023-07-08T03:50:20.396Z,17.43
2023-07-08T03:52:48.929Z,17.00
2023-07-08T03:55:17.491Z,18.37
2023-07-08T03:57:45.618Z,17.70
2023-07-08T04:00:15.629Z,17.53
2023-07-08T04:02:44.260Z,16.37
2023-07-08T04:05:17.861Z,17.20
2023-07-08T04:07:46.853Z,20.67
2023-07-08T04:10:15.720Z,18.43
2023-07-08T04:12:43.774Z,17.03
2023-07-08T04:15:12.283Z,17.63
2023-07-08T04:17:43.662Z,16.50
2023-07-08T04:20:12.397Z,16.03
2023-07-08T04:22:40.447Z,16.83
2023-07-08T04:25:08.728Z,17.27
2023-07-08T04:27:36.667Z,14.97
2023-07-08T04:30:05.445Z,16.63
2023-07-08T04:32:33.577Z,14.83
2023-07-08T04:35:03.083Z,15.97
2023-07-08T04:37:31.197Z,14.93
2023-07-08T04:40:00.694Z,17.10
2023-07-08T04:42:29.864Z,16.40
2023-07-08T04:44:57.984Z,16.30
2023-07-08T04:47:25.926Z,16.30
2023-07-08T04:49:57.213Z,16.30
2023-07-08T04:52:26.593Z,17.07
2023-07-08T04:54:54.649Z,17.87
2023-07-08T04:57:22.979Z,16.27
2023-07-08T04:59:51.034Z,19.83
2023-07-08T05:02:19.136Z,17.63
2023-07-08T05:04:47.360Z,17.00
2023-07-08T05:07:15.433Z,17.70
2023-07-08T05:09:44.890Z,18.43
2023-07-08T05:12:12.828Z,18.93
2023-07-08T05:14:41.058Z,16.87
2023-07-08T05:17:09.546Z,17.97
2023-07-08T05:19:37.713Z,18.23
2023-07-08T05:22:06.167Z,17.23
2023-07-08T05:24:34.197Z,19.40
2023-07-08T05:27:04.464Z,18.30
2023-07-08T05:29:32.504Z,18.57
2023-07-08T05:32:00.661Z,18.10
2023-07-08T05:34:28.668Z,18.47
2023-07-08T05:36:56.652Z,17.13
2023-07-08T05:39:24.627Z,17.57
2023-07-08T05:41:52.660Z,16.20
2023-07-08T05:44:22.107Z,17.73
2023-07-08T05:46:50.256Z,17.60
2023-07-08T05:49:18.531Z,16.70
2023-07-08T05:51:46.917Z,16.33
2023-07-08T05:54:15.135Z,16.40
2023-07-08T05:56:43.094Z,16.70
2023-07-08T05:59:11.043Z,17.73
2023-07-08T06:01:40.492Z,17.60
2023-07-08T06:04:08.704Z,17.00
2023-07-08T06:06:36.873Z,16.77
2023-07-08T06:09:05.206Z,16.77
2023-07-08T06:11:33.514Z,16.67
2023-07-08T06:14:01.557Z,15.87
2023-07-08T06:16:40.360Z,15.50
2023-07-08T06:19:10.570Z,17.30
2023-07-08T06:21:38.636Z,17.33
2023-07-08T06:24:07.479Z,15.80
2023-07-08T06:26:35.572Z,15.07
2023-07-08T06:29:03.665Z,13.07
2023-07-08T06:31:32.078Z,13.23
2023-07-08T06:34:00.209Z,15.27
2023-07-08T06:36:29.628Z,13.03
2023-07-08T06:38:57.777Z,12.97
2023-07-08T06:41:25.839Z,12.33
2023-07-08T06:43:54.018Z,12.27
2023-07-08T06:46:26.332Z,13.80
2023-07-08T06:48:54.872Z,12.23
2023-07-08T06:51:23.130Z,12.77
2023-07-08T06:53:52.480Z,11.03
2023-07-08T06:56:20.505Z,10.80
2023-07-08T06:58:48.519Z,12.23
2023-07-08T07:01:16.531Z,12.47
2023-07-08T07:03:45.894Z,12.73
2023-07-08T07:06:13.996Z,11.83
2023-07-08T07:08:42.087Z,11.60
2023-07-08T07:11:11.559Z,11.47
2023-07-08T07:13:39.655Z,12.30
2023-07-08T07:16:07.765Z,12.63
2023-07-08T07:18:35.750Z,12.37
2023-07-08T07:21:05.456Z,12.00
2023-07-08T07:23:34.391Z,13.50
2023-07-08T07:26:02.740Z,14.10
2023-07-08T07:28:32.355Z,13.07
2023-07-08T07:31:01.363Z,12.90
2023-07-08T07:33:29.560Z,13.53
2023-07-08T07:35:57.548Z,13.70
2023-07-08T07:38:29.816Z,12.67
2023-07-08T07:41:01.265Z,13.47
2023-07-08T07:43:29.467Z,12.90
2023-07-08T07:45:59.236Z,13.00
2023-07-08T07:48:27.529Z,12.47
2023-07-08T07:50:55.585Z,12.37
2023-07-08T07:53:23.784Z,11.43
2023-07-08T07:55:58.184Z,11.97
2023-07-08T07:58:26.445Z,12.00
2023-07-08T08:00:54.394Z,12.40
2023-07-08T08:03:23.897Z,11.30
2023-07-08T08:05:52.188Z,11.23
2023-07-08T08:08:21.571Z,12.67
2023-07-08T08:10:49.655Z,13.70
2023-07-08T08:13:17.640Z,13.00
2023-07-08T08:15:45.809Z,12.47
2023-07-08T08:18:13.741Z,13.23
2023-07-08T08:20:43.025Z,13.63
2023-07-08T08:23:10.983Z,11.63
2023-07-08T08:25:38.943Z,12.03
2023-07-08T08:28:07.046Z,11.33
2023-07-08T08:30:35.074Z,13.13
2023-07-08T08:33:03.953Z,12.50
2023-07-08T08:35:32.058Z,12.53
2023-07-08T08:38:01.621Z,11.97
2023-07-08T08:40:29.654Z,12.53
2023-07-08T08:43:00.642Z,12.30
2023-07-08T08:45:29.503Z,13.50
2023-07-08T08:48:01.071Z,12.83
2023-07-08T08:50:32.257Z,10.17
2023-07-08T08:53:03.363Z,11.73
2023-07-08T08:55:32.006Z,12.67
2023-07-08T08:58:05.119Z,11.10
2023-07-08T09:00:39.106Z,12.27
2023-07-08T09:03:11.673Z,11.17
2023-07-08T09:05:39.950Z,10.90
2023-07-08T09:08:13.440Z,10.90
2023-07-08T09:10:47.117Z,9.50
2023-07-08T09:13:19.122Z,10.37
2023-07-08T09:15:47.253Z,11.63
2023-07-08T09:18:19.410Z,10.40
2023-07-08T09:20:48.524Z,10.33
2023-07-08T09:23:22.388Z,9.90
2023-07-08T09:25:53.812Z,10.90
2023-07-08T09:28:22.006Z,9.97
2023-07-08T09:30:50.685Z,9.37
2023-07-08T09:33:18.806Z,9.60
2023-07-08T09:35:48.936Z,9.30
2023-07-08T09:38:19.232Z,9.30
2023-07-08T09:40:52.979Z,8.03
2023-07-08T09:43:27.033Z,9.53
2023-07-08T09:45:59.580Z,9.47
2023-07-08T09:48:28.657Z,10.00
2023-07-08T09:50:59.046Z,10.10
2023-07-08T09:53:28.720Z,9.70
2023-07-08T09:56:00.408Z,8.70
2023-07-08T09:58:33.381Z,8.90
2023-07-08T10:01:04.039Z,8.50
2023-07-08T10:03:34.471Z,8.87
2023-07-08T10:06:06.204Z,8.97
2023-07-08T10:08:41.849Z,9.50
2023-07-08T10:11:20.015Z,9.57
2023-07-08T10:14:00.766Z,8.50
2023-07-08T10:16:37.449Z,9.07
2023-07-08T10:19:10.461Z,8.87
2023-07-08T10:21:40.839Z,8.60
2023-07-08T10:24:25.915Z,10.10
2023-07-08T10:26:59.224Z,8.27
2023-07-08T10:29:35.459Z,8.00
2023-07-08T10:32:11.179Z,8.50
2023-07-08T10:34:44.477Z,9.40
2023-07-08T10:37:19.127Z,8.60
2023-07-08T10:39:56.778Z,6.97
2023-07-08T10:42:44.869Z,7.40
2023-07-08T10:45:15.975Z,8.10
2023-07-08T10:47:57.015Z,7.90
2023-07-08T10:50:44.539Z,8.30
2023-07-08T10:53:24.983Z,6.47
2023-07-08T10:55:56.426Z,6.93
2023-07-08T10:58:37.797Z,7.00
2023-07-08T11:01:11.696Z,6.60
2023-07-08T11:03:54.077Z,7.07
2023-07-08T11:06:23.992Z,7.60
2023-07-08T11:08:55.198Z,6.87
2023-07-08T11:11:32.227Z,8.10
2023-07-08T11:14:06.734Z,8.17
2023-07-08T11:16:37.403Z,6.70
2023-07-08T11:19:08.620Z,7.90
2023-07-08T11:21:40.635Z,8.03
2023-07-08T11:24:14.567Z,7.73
2023-07-08T11:26:46.046Z,8.37
2023-07-08T11:29:19.274Z,8.50
2023-07-08T11:31:51.354Z,8.10
2023-07-08T11:34:21.263Z,7.43
2023-07-08T11:36:51.565Z,7.10
2023-07-08T11:39:31.200Z,6.40
2023-07-08T11:42:08.110Z,7.43
2023-07-08T11:44:43.813Z,7.30
2023-07-08T11:47:18.718Z,7.60
2023-07-08T11:49:51.359Z,7.17
2023-07-08T11:52:21.194Z,7.50
2023-07-08T11:54:51.213Z,6.30
2023-07-08T11:57:21.808Z,6.50
2023-07-08T12:00:08.127Z,6.70
2023-07-08T12:02:51.097Z,7.03
2023-07-08T12:05:19.665Z,6.70
2023-07-08T12:07:49.502Z,6.27
2023-07-08T12:10:19.931Z,6.33
2023-07-08T12:12:49.037Z,7.30
2023-07-08T12:15:22.412Z,6.57
2023-07-08T12:17:51.198Z,7.27
2023-07-08T12:20:23.158Z,6.43
2023-07-08T12:22:51.860Z,6.90
2023-07-08T12:25:23.187Z,6.60
2023-07-08T12:27:52.106Z,6.33
2023-07-08T12:30:23.076Z,6.53
2023-07-08T12:32:51.817Z,6.40
2023-07-08T12:35:24.401Z,7.37
2023-07-08T12:37:53.253Z,6.67
2023-07-08T12:40:23.260Z,7.07
2023-07-08T12:42:52.019Z,5.77
2023-07-08T12:45:24.255Z,6.27
2023-07-08T12:47:54.367Z,5.03
2023-07-08T12:50:23.362Z,6.60
2023-07-08T12:52:51.955Z,6.70
2023-07-08T12:58:12.017Z,5.73
2023-07-08T13:00:43.088Z,6.50
2023-07-08T13:03:14.669Z,5.80
2023-07-08T13:05:45.240Z,6.37
2023-07-08T13:08:14.577Z,6.17
2023-07-08T13:10:44.650Z,6.10
2023-07-08T13:13:15.490Z,5.77
2023-07-08T13:15:45.556Z,5.50
2023-07-08T13:18:17.683Z,5.20
2023-07-08T13:20:47.796Z,6.27
2023-07-08T13:23:18.602Z,6.00
2023-07-08T13:25:49.565Z,5.30
2023-07-08T13:28:19.717Z,4.53
2023-07-08T13:30:57.368Z,6.20
2023-07-08T13:33:27.396Z,5.53
2023-07-08T13:35:56.892Z,6.30
2023-07-08T13:38:26.920Z,9.87
2023-07-08T13:40:57.433Z,5.03
2023-07-08T13:43:26.008Z,5.07
2023-07-08T13:45:57.461Z,5.73
2023-07-08T13:48:28.480Z,4.90
2023-07-08T13:50:59.303Z,5.30
2023-07-08T13:53:29.651Z,5.57
2023-07-08T13:56:00.845Z,5.67
2023-07-08T13:58:30.770Z,5.33
2023-07-08T14:01:01.852Z,5.47
2023-07-08T14:03:30.980Z,4.87
2023-07-08T14:05:59.824Z,5.27
2023-07-08T14:08:28.163Z,5.50
2023-07-08T14:10:56.824Z,6.83
2023-07-08T14:13:24.900Z,5.50
2023-07-08T14:15:54.159Z,5.07
2023-07-08T14:18:24.725Z,5.20
2023-07-08T14:20:54.062Z,7.57
2023-07-08T14:23:23.060Z,4.93
2023-07-08T14:25:51.246Z,4.57
2023-07-08T14:28:19.229Z,5.10
2023-07-08T14:30:49.698Z,4.60
2023-07-08T14:33:17.672Z,5.43
2023-07-08T14:35:47.021Z,5.30
2023-07-08T14:38:15.449Z,5.60
2023-07-08T14:40:44.349Z,4.57
2023-07-08T14:43:16.032Z,4.60
2023-07-08T14:45:47.315Z,5.17
2023-07-08T14:48:16.140Z,5.63
2023-07-08T14:50:44.211Z,5.30
2023-07-08T14:53:15.072Z,4.60
2023-07-08T14:55:43.482Z,4.40
2023-07-08T14:58:15.426Z,5.37
2023-07-08T15:00:45.139Z,5.13
2023-07-08T15:03:13.046Z,5.20
2023-07-08T15:05:41.010Z,5.43
2023-07-08T15:08:09.559Z,4.93
2023-07-08T15:10:41.095Z,5.27
2023-07-08T15:13:12.729Z,5.40
2023-07-08T15:15:42.048Z,5.30
2023-07-08T15:18:13.619Z,7.13
2023-07-08T15:20:42.546Z,5.97
2023-07-08T15:23:12.297Z,5.60
2023-07-08T15:25:42.784Z,5.37
2023-07-08T15:28:16.987Z,5.60
2023-07-08T15:30:45.833Z,6.40
2023-07-08T15:33:15.154Z,5.97
2023-07-08T15:35:44.699Z,5.80
2023-07-08T15:38:12.659Z,5.53
2023-07-08T15:40:42.176Z,6.87
2023-07-08T15:43:12.804Z,6.10
2023-07-08T15:45:41.431Z,6.30
2023-07-08T15:48:14.049Z,5.97
2023-07-08T15:50:42.225Z,7.00
2023-07-08T15:53:10.448Z,7.20
2023-07-08T15:55:40.473Z,6.67
2023-07-08T15:58:12.479Z,6.43
2023-07-08T16:00:41.536Z,6.37
2023-07-08T16:03:12.446Z,6.80
2023-07-08T16:05:40.624Z,5.90
2023-07-08T16:08:08.688Z,5.63
2023-07-08T16:10:38.558Z,5.87
2023-07-08T16:13:06.861Z,5.80
2023-07-08T16:15:38.094Z,6.70
2023-07-08T16:18:06.569Z,6.70
2023-07-08T16:20:34.624Z,6.60
2023-07-08T16:23:02.556Z,6.20
2023-07-08T16:25:31.752Z,6.00
2023-07-08T16:28:00.353Z,8.00
2023-07-08T16:30:29.112Z,7.60
2023-07-08T16:32:58.797Z,6.40
2023-07-08T16:35:26.882Z,5.87
2023-07-08T16:37:55.461Z,6.67
2023-07-08T16:40:24.545Z,5.60
2023-07-08T16:42:56.071Z,6.90
2023-07-08T16:45:24.819Z,14.10
2023-07-08T16:47:53.397Z,6.40
2023-07-08T16:50:24.111Z,6.50
2023-07-08T16:52:52.212Z,5.83
2023-07-08T16:55:21.448Z,5.90
2023-07-08T16:57:49.490Z,7.07
2023-07-08T17:00:18.397Z,6.13
2023-07-08T17:02:46.784Z,6.37
2023-07-08T17:05:19.496Z,6.50
2023-07-08T17:07:49.071Z,9.60
2023-07-08T17:10:17.410Z,7.20
2023-07-08T17:12:45.414Z,6.73
2023-07-08T17:15:14.615Z,6.53
2023-07-08T17:17:45.475Z,6.93
2023-07-08T17:20:18.707Z,6.50
2023-07-08T17:22:48.252Z,5.30
2023-07-08T17:25:17.121Z,5.70
2023-07-08T17:27:45.740Z,6.47
2023-07-08T17:30:15.608Z,6.83
2023-07-08T17:32:44.662Z,5.93
2023-07-08T17:35:14.798Z,6.73
2023-07-08T17:37:42.860Z,8.03
2023-07-08T17:40:16.745Z,6.60
2023-07-08T17:42:45.258Z,6.80
2023-07-08T17:45:14.449Z,8.07
2023-07-08T17:47:42.679Z,7.03
2023-07-08T17:50:21.158Z,6.87
2023-07-08T17:52:49.826Z,7.00
2023-07-08T17:55:19.913Z,7.00
2023-07-08T17:57:49.633Z,8.97
2023-07-08T18:00:19.053Z,9.30
2023-07-08T18:02:47.001Z,8.63
2023-07-08T18:05:15.987Z,9.10
2023-07-08T18:07:45.611Z,7.97
2023-07-08T18:10:13.827Z,6.90
2023-07-08T18:12:44.331Z,6.00
2023-07-08T18:15:16.778Z,7.30
2023-07-08T18:17:44.809Z,6.63
2023-07-08T18:20:13.248Z,7.07
2023-07-08T18:22:43.988Z,7.07
2023-07-08T18:25:19.414Z,8.10
2023-07-08T18:27:49.270Z,6.07
2023-07-08T18:30:18.475Z,8.77
2023-07-08T18:32:47.894Z,7.47
2023-07-08T18:35:17.147Z,6.40
2023-07-08T18:37:45.197Z,6.37
2023-07-08T18:40:14.197Z,6.97
2023-07-08T18:42:42.878Z,6.70
2023-07-08T18:45:18.592Z,8.07
2023-07-08T18:47:46.965Z,9.33
2023-07-08T18:50:15.641Z,7.83
2023-07-08T18:52:43.988Z,6.57
2023-07-08T18:55:14.126Z,7.53
2023-07-08T18:57:42.241Z,7.10
2023-07-08T19:00:12.233Z,7.53
2023-07-08T19:02:45.098Z,7.97
2023-07-08T19:05:13.579Z,7.43
2023-07-08T19:07:41.645Z,7.23
2023-07-08T19:10:10.618Z,6.83
2023-07-08T19:12:46.007Z,7.50
2023-07-08T19:15:18.710Z,8.40
2023-07-08T19:17:48.077Z,6.83
2023-07-08T19:20:16.272Z,7.30
2023-07-08T19:22:45.901Z,7.20
2023-07-08T19:25:17.843Z,6.47
2023-07-08T19:27:45.959Z,6.77
2023-07-08T19:30:14.257Z,6.80
2023-07-08T19:32:44.953Z,7.07
2023-07-08T19:35:15.766Z,6.03
2023-07-08T19:37:43.801Z,7.57
2023-07-08T19:40:14.328Z,7.10
2023-07-08T19:42:43.664Z,7.00
2023-07-08T19:45:19.750Z,6.53
2023-07-08T19:47:48.820Z,6.60
2023-07-08T19:50:20.853Z,6.20
2023-07-08T19:52:49.718Z,6.30
2023-07-08T19:55:18.060Z,7.43
2023-07-08T19:57:47.331Z,5.77
2023-07-08T20:00:21.031Z,5.50
2023-07-08T20:02:49.743Z,7.00
2023-07-08T20:05:19.531Z,6.17
2023-07-08T20:07:48.498Z,6.50
2023-07-08T20:10:18.000Z,6.43
2023-07-08T20:12:46.465Z,6.07
2023-07-08T20:15:15.061Z,9.10
2023-07-08T20:17:43.308Z,6.67
2023-07-08T20:20:20.625Z,6.50
2023-07-08T20:22:49.264Z,6.17
2023-07-08T20:25:18.763Z,5.20
2023-07-08T20:27:48.021Z,5.90
2023-07-08T20:30:17.497Z,6.30
2023-07-08T20:32:46.929Z,5.80
2023-07-08T20:35:16.107Z,5.67
2023-07-08T20:37:46.539Z,6.20
2023-07-08T20:40:16.821Z,6.07
2023-07-08T20:42:45.486Z,6.43
2023-07-08T20:45:14.774Z,6.17
2023-07-08T20:47:48.214Z,5.90
2023-07-08T20:50:17.432Z,6.87
2023-07-08T20:52:47.319Z,5.30
2023-07-08T20:55:16.820Z,6.13
2023-07-08T20:57:45.606Z,5.60
2023-07-08T21:00:23.034Z,6.20
2023-07-08T21:02:51.815Z,6.20
2023-07-08T21:05:20.992Z,7.20
2023-07-08T21:07:50.930Z,7.37
2023-07-08T21:10:20.120Z,6.10
2023-07-08T21:12:48.401Z,6.03
2023-07-08T21:15:17.047Z,6.03
2023-07-08T21:17:45.349Z,6.67
2023-07-08T21:20:20.605Z,6.43
2023-07-08T21:22:50.470Z,6.20
2023-07-08T21:25:19.386Z,6.60
2023-07-08T21:27:48.388Z,6.80
2023-07-08T21:30:18.173Z,5.80
2023-07-08T21:32:47.100Z,6.40
2023-07-08T21:35:15.708Z,6.47
2023-07-08T21:37:48.098Z,6.10
2023-07-08T21:40:21.858Z,6.07
2023-07-08T21:42:49.932Z,6.27
2023-07-08T21:45:25.916Z,5.73
2023-07-08T21:47:54.278Z,6.27
2023-07-08T21:50:22.779Z,5.53
2023-07-08T21:52:50.870Z,5.77
2023-07-08T21:55:21.150Z,6.70
2023-07-08T21:57:49.560Z,6.93
2023-07-08T22:00:18.083Z,6.57
2023-07-08T22:02:48.229Z,6.10
2023-07-08T22:05:16.921Z,5.77
2023-07-08T22:07:45.037Z,5.80
2023-07-08T22:10:17.258Z,5.80
2023-07-08T22:12:48.132Z,7.23
2023-07-08T22:15:18.832Z,6.00
2023-07-08T22:17:47.419Z,6.30
2023-07-08T22:20:15.934Z,6.10
2023-07-08T22:22:45.950Z,6.17
2023-07-08T22:25:19.279Z,6.30
2023-07-08T22:27:49.320Z,5.97
2023-07-08T22:30:18.014Z,6.87
2023-07-08T22:32:46.232Z,7.67
2023-07-08T22:35:16.870Z,6.17
2023-07-08T22:37:45.073Z,7.50
2023-07-08T22:40:14.143Z,5.97
2023-07-08T22:42:43.716Z,5.13
2023-07-08T22:45:16.423Z,5.67
2023-07-08T22:47:46.082Z,5.13
2023-07-08T22:50:15.134Z,5.67
2023-07-08T22:52:46.660Z,5.40
2023-07-08T22:55:17.372Z,4.40
2023-07-08T22:57:46.760Z,5.50
2023-07-08T23:00:20.237Z,5.77
2023-07-08T23:02:48.601Z,7.73
2023-07-08T23:05:17.300Z,4.57
2023-07-08T23:07:45.450Z,6.10
2023-07-08T23:10:13.778Z,5.57
2023-07-08T23:12:42.043Z,4.60
2023-07-08T23:15:10.582Z,5.30
2023-07-08T23:17:42.234Z,6.43
2023-07-08T23:20:14.783Z,5.40
2023-07-08T23:22:43.155Z,4.60
2023-07-08T23:25:11.294Z,4.50
2023-07-08T23:27:40.029Z,6.27
2023-07-08T23:30:11.298Z,5.93
2023-07-08T23:32:40.657Z,7.17
2023-07-08T23:35:08.989Z,7.53
2023-07-08T23:37:36.980Z,5.87
2023-07-08T23:40:05.484Z,5.03
2023-07-08T23:42:33.526Z,6.10
2023-07-08T23:45:01.575Z,5.70
2023-07-08T23:47:30.308Z,5.03
2023-07-08T23:49:59.608Z,8.90
2023-07-08T23:52:27.682Z,6.63
2023-07-08T23:54:55.864Z,6.00
2023-07-08T23:57:25.212Z,6.60
2023-07-08T23:59:54.101Z,11.37
